AKST,Max TemperatureF,Mean TemperatureF,Min TemperatureF,Max Dew PointF,MeanDew PointF,Min DewpointF,Max Humidity, Mean Humidity, Min Humidity, Max Sea Level PressureIn, Mean Sea Level PressureIn, Min Sea Level PressureIn, Max VisibilityMiles, Mean VisibilityMiles, Min VisibilityMiles, Max Wind SpeedMPH, Mean Wind SpeedMPH, Max Gust SpeedMPH,PrecipitationIn, CloudCover, Events, WindDirDegrees
2010-11-1,51,48,44,45,40,35,87,75,62,29.49,29.03,28.82,10,8,2,31,20,59,0.76,8,Rain-Thunderstorm,143
2010-11-2,50,47,44,43,41,38,89,80,66,30.22,29.94,29.54,10,9,3,22,15,31,0.53,7,Rain-Thunderstorm,157
2010-11-3,57,52,48,46,41,38,87,70,57,30.11,29.63,29.41,10,8,2,33,19,51,0.94,8,Rain,127
2010-11-4,48,42,37,45,38,34,93,82,69,29.59,29.46,29.26,10,8,3,20,9,33,1.37,8,Rain-Hail-Thunderstorm,123
2010-11-5,46,42,39,38,36,34,89,77,63,29.62,29.56,29.37,10,9,3,17,13,29,0.25,8,Rain,123
2010-11-6,50,47,46,36,34,33,68,61,56,29.35,29.27,29.23,10,10,10,23,18,33,0.00,7,Rain,115
2010-11-7,46,42,39,41,39,36,92,82,66,29.68,29.51,29.31,10,9,4,15,7,23,0.32,7,Rain,129
2010-11-8,44,40,36,36,34,32,89,77,65,29.75,29.72,29.68,10,10,9,14,8,18,0.02,5,Rain,113
2010-11-9,44,40,36,39,34,31,89,78,65,30.02,29.88,29.71,10,9,4,8,4,,0.12,5,Rain,54
2010-11-10,46,42,39,39,36,32,100,81,58,30.06,29.97,29.73,10,10,2,22,8,30,0.11,7,Rain,102
2010-11-11,46,45,44,42,37,31,85,72,58,29.85,29.72,29.57,10,9,3,25,16,32,0.30,8,Rain,128
2010-11-12,51,48,44,47,45,38,96,87,76,29.83,29.73,29.69,10,5,2,28,16,41,1.86,8,Rain,145
2010-11-13,48,45,42,46,43,38,100,91,76,30.03,29.90,29.66,10,8,2,17,9,20,0.39,8,Rain,183
2010-11-14,46,42,37,43,40,36,100,87,76,30.14,30.01,29.67,10,10,5,15,4,,0.09,7,Fog-Rain,311
2010-11-15,42,38,34,34,33,31,96,87,70,30.11,29.97,29.88,10,10,7,17,4,,0.01,4,Rain,39
2010-11-16,37,35,33,35,31,16,97,86,46,30.04,29.97,29.83,10,10,5,6,3,,0.12,6,Rain,67
2010-11-17,34,32,30,15,6,-1,46,33,23,30.06,29.86,29.78,10,10,10,16,8,26,0.00,0,,24
2010-11-18,41,36,30,23,12,-3,69,40,20,30.25,30.21,30.09,10,10,10,22,7,23,0.00,0,,18
2010-11-19,42,35,28,23,10,1,69,34,20,30.45,30.34,30.22,10,10,10,17,8,39,0.00,0,,18
2010-11-20,37,32,28,29,21,7,85,61,37,30.42,30.26,30.12,10,10,10,7,2,,0.00,5,,81
2010-11-21,39,36,32,31,28,23,92,75,61,30.19,30.11,30.09,10,10,10,8,2,,0.00,6,,64
2010-11-22,39,34,30,20,10,2,54,38,25,30.42,30.35,30.22,10,10,10,13,7,22,0.00,4,,102
2010-11-23,39,36,33,39,35,23,100,92,64,30.27,30.02,29.95,10,5,1,10,4,,0.06,8,Rain-Snow,95
2010-11-24,46,42,39,45,42,37,100,90,76,29.96,29.74,29.68,10,5,1,21,10,26,0.92,8,Rain,184
2010-11-25,43,40,37,38,37,34,97,89,81,29.68,29.49,29.28,10,9,5,14,7,28,0.16,8,Rain,110
2010-11-26,39,36,32,37,35,32,100,95,89,29.76,29.55,29.29,10,10,7,5,1,,0.01,7,,95
2010-11-27,37,34,30,36,34,28,100,93,86,29.88,29.84,29.77,10,9,4,7,3,,0.10,7,Rain,93
2010-11-28,42,39,36,36,34,31,93,80,65,29.88,29.80,29.57,10,10,6,18,9,24,0.04,8,Rain,113
2010-11-29,46,40,35,37,33,30,100,71,61,29.53,29.11,28.95,10,9,6,32,22,53,0.19,8,Rain,127
2010-11-30,39,36,33,36,32,28,100,85,63,29.51,29.33,29.13,10,8,1,22,9,30,0.19,7,Rain-Snow,113